sensor_id;sensor_type;location;lat;lon;timestamp;temperature;humidity
31731;DHT22;18310;55.586;12.286;2022-08-21T00:01:03;21.10;62.50
31731;DHT22;18310;55.586;12.286;2022-08-21T00:04:10;20.80;61.60
31731;DHT22;18310;55.586;12.286;2022-08-21T00:07:23;20.60;61.60
31731;DHT22;18310;55.586;12.286;2022-08-21T00:10:27;20.60;62.40
31731;DHT22;18310;55.586;12.286;2022-08-21T00:13:30;20.70;62.90
31731;DHT22;18310;55.586;12.286;2022-08-21T00:16:34;22.10;64.00
31731;DHT22;18310;55.586;12.286;2022-08-21T00:19:39;20.50;62.60
31731;DHT22;18310;55.586;12.286;2022-08-21T00:22:43;19.50;63.10
31731;DHT22;18310;55.586;12.286;2022-08-21T00:25:46;20.20;63.70
31731;DHT22;18310;55.586;12.286;2022-08-21T00:28:50;20.40;63.90
31731;DHT22;18310;55.586;12.286;2022-08-21T00:31:53;19.70;64.10
31731;DHT22;18310;55.586;12.286;2022-08-21T00:34:58;20.10;64.20
31731;DHT22;18310;55.586;12.286;2022-08-21T00:38:01;20.90;65.10
31731;DHT22;18310;55.586;12.286;2022-08-21T00:41:09;20.30;65.50
31731;DHT22;18310;55.586;12.286;2022-08-21T00:44:33;20.20;64.80
31731;DHT22;18310;55.586;12.286;2022-08-21T00:50:46;20.80;64.10
31731;DHT22;18310;55.586;12.286;2022-08-21T00:53:56;20.10;63.50
31731;DHT22;18310;55.586;12.286;2022-08-21T00:57:09;20.40;64.10
31731;DHT22;18310;55.586;12.286;2022-08-21T01:00:20;18.70;63.60
31731;DHT22;18310;55.586;12.286;2022-08-21T01:06:33;20.80;65.00
31731;DHT22;18310;55.586;12.286;2022-08-21T01:09:37;19.90;64.00
31731;DHT22;18310;55.586;12.286;2022-08-21T01:12:41;19.80;64.50
31731;DHT22;18310;55.586;12.286;2022-08-21T01:15:47;19.90;64.70
31731;DHT22;18310;55.586;12.286;2022-08-21T01:21:59;19.70;65.00
31731;DHT22;18310;55.586;12.286;2022-08-21T01:25:04;16.90;62.60
31731;DHT22;18310;55.586;12.286;2022-08-21T01:28:12;19.60;64.20
31731;DHT22;18310;55.586;12.286;2022-08-21T01:31:19;20.00;64.70
31731;DHT22;18310;55.586;12.286;2022-08-21T01:37:32;19.50;64.20
31731;DHT22;18310;55.586;12.286;2022-08-21T01:43:40;19.40;64.40
31731;DHT22;18310;55.586;12.286;2022-08-21T01:46:43;19.40;65.20
31731;DHT22;18310;55.586;12.286;2022-08-21T01:49:47;18.40;64.70
31731;DHT22;18310;55.586;12.286;2022-08-21T01:52:51;19.30;64.60
31731;DHT22;18310;55.586;12.286;2022-08-21T02:08:12;19.10;65.60
31731;DHT22;18310;55.586;12.286;2022-08-21T02:17:37;19.30;64.80
31731;DHT22;18310;55.586;12.286;2022-08-21T02:20:46;18.80;64.40
31731;DHT22;18310;55.586;12.286;2022-08-21T02:23:58;18.90;64.60
31731;DHT22;18310;55.586;12.286;2022-08-21T02:27:02;17.60;64.10
31731;DHT22;18310;55.586;12.286;2022-08-21T02:30:06;18.90;64.90
31731;DHT22;18310;55.586;12.286;2022-08-21T02:33:13;18.80;64.90
31731;DHT22;18310;55.586;12.286;2022-08-21T02:39:21;19.20;65.40
31731;DHT22;18310;55.586;12.286;2022-08-21T02:45:33;18.40;65.20
31731;DHT22;18310;55.586;12.286;2022-08-21T02:48:37;18.60;65.40
31731;DHT22;18310;55.586;12.286;2022-08-21T02:54:46;18.80;65.40
31731;DHT22;18310;55.586;12.286;2022-08-21T03:00:54;18.80;65.10
31731;DHT22;18310;55.586;12.286;2022-08-21T03:10:08;18.70;65.00
31731;DHT22;18310;55.586;12.286;2022-08-21T03:13:13;18.70;65.10
31731;DHT22;18310;55.586;12.286;2022-08-21T03:22:26;19.90;66.10
31731;DHT22;18310;55.586;12.286;2022-08-21T03:25:33;18.50;65.20
31731;DHT22;18310;55.586;12.286;2022-08-21T03:28:41;17.80;64.90
31731;DHT22;18310;55.586;12.286;2022-08-21T03:34:49;19.60;66.20
31731;DHT22;18310;55.586;12.286;2022-08-21T03:37:53;18.60;65.90
31731;DHT22;18310;55.586;12.286;2022-08-21T03:40:58;18.60;66.40
31731;DHT22;18310;55.586;12.286;2022-08-21T03:44:02;18.60;65.70
31731;DHT22;18310;55.586;12.286;2022-08-21T03:47:06;18.50;65.80
31731;DHT22;18310;55.586;12.286;2022-08-21T03:50:09;18.60;66.00
31731;DHT22;18310;55.586;12.286;2022-08-21T03:53:14;18.70;66.40
31731;DHT22;18310;55.586;12.286;2022-08-21T03:56:20;18.70;66.50
31731;DHT22;18310;55.586;12.286;2022-08-21T04:11:41;19.00;66.20
31731;DHT22;18310;55.586;12.286;2022-08-21T04:20:52;19.10;66.40
31731;DHT22;18310;55.586;12.286;2022-08-21T04:27:04;19.00;66.30
31731;DHT22;18310;55.586;12.286;2022-08-21T04:30:09;19.10;66.60
31731;DHT22;18310;55.586;12.286;2022-08-21T04:42:32;19.10;66.20
31731;DHT22;18310;55.586;12.286;2022-08-21T04:45:37;19.00;66.10
31731;DHT22;18310;55.586;12.286;2022-08-21T04:54:50;19.10;65.90
31731;DHT22;18310;55.586;12.286;2022-08-21T04:57:57;19.30;66.00
31731;DHT22;18310;55.586;12.286;2022-08-21T05:01:02;18.40;65.50
31731;DHT22;18310;55.586;12.286;2022-08-21T05:04:09;15.70;65.00
31731;DHT22;18310;55.586;12.286;2022-08-21T05:07:20;19.60;67.50
31731;DHT22;18310;55.586;12.286;2022-08-21T05:10:43;18.00;67.40
31731;DHT22;18310;55.586;12.286;2022-08-21T05:13:48;18.60;67.20
31731;DHT22;18310;55.586;12.286;2022-08-21T05:16:58;20.50;67.90
31731;DHT22;18310;55.586;12.286;2022-08-21T05:20:01;19.20;66.70
31731;DHT22;18310;55.586;12.286;2022-08-21T05:23:06;21.10;67.10
31731;DHT22;18310;55.586;12.286;2022-08-21T05:29:21;21.90;64.90
31731;DHT22;18310;55.586;12.286;2022-08-21T05:32:24;22.40;63.00
31731;DHT22;18310;55.586;12.286;2022-08-21T05:35:30;22.90;63.70
31731;DHT22;18310;55.586;12.286;2022-08-21T05:38:34;23.20;63.50
31731;DHT22;18310;55.586;12.286;2022-08-21T05:41:38;23.00;62.70
31731;DHT22;18310;55.586;12.286;2022-08-21T05:44:42;23.60;61.50
31731;DHT22;18310;55.586;12.286;2022-08-21T05:47:46;23.60;61.70
31731;DHT22;18310;55.586;12.286;2022-08-21T05:50:50;23.30;60.90
31731;DHT22;18310;55.586;12.286;2022-08-21T05:53:55;24.20;60.70
31731;DHT22;18310;55.586;12.286;2022-08-21T05:56:58;24.60;59.80
31731;DHT22;18310;55.586;12.286;2022-08-21T06:00:04;25.00;59.10
31731;DHT22;18310;55.586;12.286;2022-08-21T06:03:12;25.30;57.80
31731;DHT22;18310;55.586;12.286;2022-08-21T06:06:17;25.60;57.70
31731;DHT22;18310;55.586;12.286;2022-08-21T06:09:21;26.00;57.30
31731;DHT22;18310;55.586;12.286;2022-08-21T06:12:25;26.10;56.50
31731;DHT22;18310;55.586;12.286;2022-08-21T06:15:30;26.40;56.10
31731;DHT22;18310;55.586;12.286;2022-08-21T06:18:33;26.80;55.10
31731;DHT22;18310;55.586;12.286;2022-08-21T06:21:37;30.50;57.20
31731;DHT22;18310;55.586;12.286;2022-08-21T06:24:41;26.80;54.30
31731;DHT22;18310;55.586;12.286;2022-08-21T06:27:44;27.10;54.40
31731;DHT22;18310;55.586;12.286;2022-08-21T06:30:49;27.30;54.00
31731;DHT22;18310;55.586;12.286;2022-08-21T06:33:53;27.50;52.40
31731;DHT22;18310;55.586;12.286;2022-08-21T06:36:56;27.80;52.30
31731;DHT22;18310;55.586;12.286;2022-08-21T06:40:00;27.60;52.10
31731;DHT22;18310;55.586;12.286;2022-08-21T06:43:08;30.10;53.60
31731;DHT22;18310;55.586;12.286;2022-08-21T06:46:17;27.70;50.90
31731;DHT22;18310;55.586;12.286;2022-08-21T06:49:20;27.70;51.00
31731;DHT22;18310;55.586;12.286;2022-08-21T06:52:24;27.80;51.40
31731;DHT22;18310;55.586;12.286;2022-08-21T06:55:28;27.90;51.30
31731;DHT22;18310;55.586;12.286;2022-08-21T06:58:32;28.00;51.40
31731;DHT22;18310;55.586;12.286;2022-08-21T07:01:37;28.30;51.20
31731;DHT22;18310;55.586;12.286;2022-08-21T07:04:41;28.50;50.80
31731;DHT22;18310;55.586;12.286;2022-08-21T07:07:45;28.60;50.00
31731;DHT22;18310;55.586;12.286;2022-08-21T07:10:49;28.70;48.50
31731;DHT22;18310;55.586;12.286;2022-08-21T07:13:52;28.90;49.20
31731;DHT22;18310;55.586;12.286;2022-08-21T07:16:59;28.00;48.80
31731;DHT22;18310;55.586;12.286;2022-08-21T07:20:03;29.10;48.20
31731;DHT22;18310;55.586;12.286;2022-08-21T07:23:11;29.10;48.10
31731;DHT22;18310;55.586;12.286;2022-08-21T07:26:20;29.10;47.40
31731;DHT22;18310;55.586;12.286;2022-08-21T07:29:24;29.20;47.50
31731;DHT22;18310;55.586;12.286;2022-08-21T07:32:29;29.10;47.40
31731;DHT22;18310;55.586;12.286;2022-08-21T07:35:32;29.10;47.00
31731;DHT22;18310;55.586;12.286;2022-08-21T07:38:36;29.00;46.40
31731;DHT22;18310;55.586;12.286;2022-08-21T07:41:39;28.90;46.20
31731;DHT22;18310;55.586;12.286;2022-08-21T07:44:42;27.10;44.70
31731;DHT22;18310;55.586;12.286;2022-08-21T07:47:47;28.50;45.90
31731;DHT22;18310;55.586;12.286;2022-08-21T07:50:58;28.00;45.60
31731;DHT22;18310;55.586;12.286;2022-08-21T07:54:07;28.00;46.00
31731;DHT22;18310;55.586;12.286;2022-08-21T07:57:17;27.90;45.90
31731;DHT22;18310;55.586;12.286;2022-08-21T08:00:24;27.60;45.90
31731;DHT22;18310;55.586;12.286;2022-08-21T08:03:30;28.30;46.30
31731;DHT22;18310;55.586;12.286;2022-08-21T08:06:34;27.50;45.20
31731;DHT22;18310;55.586;12.286;2022-08-21T08:09:37;27.40;45.40
31731;DHT22;18310;55.586;12.286;2022-08-21T08:12:42;27.30;45.30
31731;DHT22;18310;55.586;12.286;2022-08-21T08:15:47;27.40;45.00
31731;DHT22;18310;55.586;12.286;2022-08-21T08:18:52;27.30;45.40
31731;DHT22;18310;55.586;12.286;2022-08-21T08:21:57;27.40;45.00
31731;DHT22;18310;55.586;12.286;2022-08-21T08:25:00;27.30;45.20
31731;DHT22;18310;55.586;12.286;2022-08-21T08:28:10;29.30;46.40
31731;DHT22;18310;55.586;12.286;2022-08-21T08:31:18;27.30;45.10
31731;DHT22;18310;55.586;12.286;2022-08-21T08:34:23;27.30;45.30
31731;DHT22;18310;55.586;12.286;2022-08-21T08:37:26;27.30;45.20
31731;DHT22;18310;55.586;12.286;2022-08-21T08:40:37;27.40;45.40
31731;DHT22;18310;55.586;12.286;2022-08-21T08:43:50;27.40;45.40
31731;DHT22;18310;55.586;12.286;2022-08-21T08:46:56;27.30;45.30
31731;DHT22;18310;55.586;12.286;2022-08-21T08:50:05;27.50;45.40
31731;DHT22;18310;55.586;12.286;2022-08-21T08:53:16;27.50;44.70
31731;DHT22;18310;55.586;12.286;2022-08-21T08:56:28;27.60;44.80
31731;DHT22;18310;55.586;12.286;2022-08-21T08:59:39;27.50;43.70
31731;DHT22;18310;55.586;12.286;2022-08-21T09:02:45;25.50;42.30
31731;DHT22;18310;55.586;12.286;2022-08-21T09:05:57;27.50;43.80
31731;DHT22;18310;55.586;12.286;2022-08-21T09:09:18;27.50;42.80
31731;DHT22;18310;55.586;12.286;2022-08-21T09:12:36;27.60;43.10
31731;DHT22;18310;55.586;12.286;2022-08-21T09:15:53;27.40;44.00
31731;DHT22;18310;55.586;12.286;2022-08-21T09:19:06;27.70;43.80
31731;DHT22;18310;55.586;12.286;2022-08-21T09:22:33;27.70;43.40
31731;DHT22;18310;55.586;12.286;2022-08-21T09:25:58;27.70;42.80
31731;DHT22;18310;55.586;12.286;2022-08-21T09:29:11;27.70;43.00
31731;DHT22;18310;55.586;12.286;2022-08-21T09:32:17;27.80;42.70
31731;DHT22;18310;55.586;12.286;2022-08-21T09:35:23;27.80;42.30
31731;DHT22;18310;55.586;12.286;2022-08-21T09:38:30;27.70;42.30
31731;DHT22;18310;55.586;12.286;2022-08-21T09:41:35;27.70;42.50
31731;DHT22;18310;55.586;12.286;2022-08-21T09:44:41;27.70;42.90
31731;DHT22;18310;55.586;12.286;2022-08-21T09:47:45;27.70;42.50
31731;DHT22;18310;55.586;12.286;2022-08-21T09:50:50;28.20;43.30
31731;DHT22;18310;55.586;12.286;2022-08-21T09:54:07;27.80;42.50
31731;DHT22;18310;55.586;12.286;2022-08-21T09:57:23;27.80;42.20
31731;DHT22;18310;55.586;12.286;2022-08-21T10:00:57;27.80;41.50
31731;DHT22;18310;55.586;12.286;2022-08-21T10:04:03;27.70;41.20
31731;DHT22;18310;55.586;12.286;2022-08-21T10:07:08;27.70;40.80
31731;DHT22;18310;55.586;12.286;2022-08-21T10:10:18;27.50;41.40
31731;DHT22;18310;55.586;12.286;2022-08-21T10:13:36;27.60;40.60
31731;DHT22;18310;55.586;12.286;2022-08-21T10:16:55;27.60;41.20
31731;DHT22;18310;55.586;12.286;2022-08-21T10:20:10;27.60;41.00
31731;DHT22;18310;55.586;12.286;2022-08-21T10:23:34;25.80;40.20
31731;DHT22;18310;55.586;12.286;2022-08-21T10:26:59;27.80;41.70
31731;DHT22;18310;55.586;12.286;2022-08-21T10:30:16;27.90;41.90
31731;DHT22;18310;55.586;12.286;2022-08-21T10:33:30;28.10;41.70
31731;DHT22;18310;55.586;12.286;2022-08-21T10:36:46;28.60;41.80
31731;DHT22;18310;55.586;12.286;2022-08-21T10:40:07;28.50;40.80
31731;DHT22;18310;55.586;12.286;2022-08-21T10:43:26;28.80;40.80
31731;DHT22;18310;55.586;12.286;2022-08-21T10:46:45;28.90;40.40
31731;DHT22;18310;55.586;12.286;2022-08-21T10:49:59;29.10;40.40
31731;DHT22;18310;55.586;12.286;2022-08-21T10:53:51;31.00;41.50
31731;DHT22;18310;55.586;12.286;2022-08-21T10:57:07;29.40;39.90
31731;DHT22;18310;55.586;12.286;2022-08-21T11:00:18;29.50;39.80
31731;DHT22;18310;55.586;12.286;2022-08-21T11:03:28;29.70;39.70
31731;DHT22;18310;55.586;12.286;2022-08-21T11:06:38;29.80;39.30
31731;DHT22;18310;55.586;12.286;2022-08-21T11:09:47;29.80;39.10
31731;DHT22;18310;55.586;12.286;2022-08-21T11:12:56;29.90;39.10
31731;DHT22;18310;55.586;12.286;2022-08-21T11:16:12;27.70;38.00
31731;DHT22;18310;55.586;12.286;2022-08-21T11:19:28;29.90;39.30
31731;DHT22;18310;55.586;12.286;2022-08-21T11:22:41;29.90;39.10
31731;DHT22;18310;55.586;12.286;2022-08-21T11:26:02;30.00;38.90
31731;DHT22;18310;55.586;12.286;2022-08-21T11:29:13;30.00;38.20
31731;DHT22;18310;55.586;12.286;2022-08-21T11:32:47;30.10;38.50
31731;DHT22;18310;55.586;12.286;2022-08-21T11:36:13;30.10;38.00
31731;DHT22;18310;55.586;12.286;2022-08-21T11:39:29;30.30;38.10
31731;DHT22;18310;55.586;12.286;2022-08-21T11:42:44;30.30;37.50
31731;DHT22;18310;55.586;12.286;2022-08-21T11:45:54;30.30;37.40
31731;DHT22;18310;55.586;12.286;2022-08-21T11:49:15;30.30;38.10
31731;DHT22;18310;55.586;12.286;2022-08-21T11:52:32;30.40;37.50
31731;DHT22;18310;55.586;12.286;2022-08-21T11:55:44;30.40;37.20
31731;DHT22;18310;55.586;12.286;2022-08-21T11:58:54;30.40;37.00
31731;DHT22;18310;55.586;12.286;2022-08-21T12:02:02;30.50;37.00
31731;DHT22;18310;55.586;12.286;2022-08-21T12:05:23;30.40;37.40
31731;DHT22;18310;55.586;12.286;2022-08-21T12:08:32;30.40;36.70
31731;DHT22;18310;55.586;12.286;2022-08-21T12:11:46;30.40;37.00
31731;DHT22;18310;55.586;12.286;2022-08-21T12:15:13;30.40;36.20
31731;DHT22;18310;55.586;12.286;2022-08-21T12:18:22;30.30;36.60
31731;DHT22;18310;55.586;12.286;2022-08-21T12:21:34;30.20;37.00
31731;DHT22;18310;55.586;12.286;2022-08-21T12:25:05;29.80;38.90
31731;DHT22;18310;55.586;12.286;2022-08-21T12:28:14;29.00;37.00
31731;DHT22;18310;55.586;12.286;2022-08-21T12:31:23;30.00;37.80
31731;DHT22;18310;55.586;12.286;2022-08-21T12:34:34;29.90;37.70
31731;DHT22;18310;55.586;12.286;2022-08-21T12:37:44;30.70;39.30
31731;DHT22;18310;55.586;12.286;2022-08-21T12:40:53;29.70;37.80
31731;DHT22;18310;55.586;12.286;2022-08-21T12:44:01;29.70;38.10
31731;DHT22;18310;55.586;12.286;2022-08-21T12:47:15;29.20;37.90
31731;DHT22;18310;55.586;12.286;2022-08-21T12:50:23;29.60;38.40
31731;DHT22;18310;55.586;12.286;2022-08-21T12:53:41;29.50;38.70
31731;DHT22;18310;55.586;12.286;2022-08-21T12:56:57;29.80;38.50
31731;DHT22;18310;55.586;12.286;2022-08-21T13:00:04;29.90;38.80
31731;DHT22;18310;55.586;12.286;2022-08-21T13:03:13;30.10;39.50
31731;DHT22;18310;55.586;12.286;2022-08-21T13:06:18;30.20;38.70
31731;DHT22;18310;55.586;12.286;2022-08-21T13:09:29;28.50;36.70
31731;DHT22;18310;55.586;12.286;2022-08-21T13:12:35;30.30;36.60
31731;DHT22;18310;55.586;12.286;2022-08-21T13:15:41;30.30;37.40
31731;DHT22;18310;55.586;12.286;2022-08-21T13:18:55;30.20;37.40
31731;DHT22;18310;55.586;12.286;2022-08-21T13:22:01;30.20;36.60
31731;DHT22;18310;55.586;12.286;2022-08-21T13:25:29;30.20;37.80
31731;DHT22;18310;55.586;12.286;2022-08-21T13:28:36;30.20;38.00
31731;DHT22;18310;55.586;12.286;2022-08-21T13:31:41;30.00;37.80
31731;DHT22;18310;55.586;12.286;2022-08-21T13:34:49;30.30;37.60
31731;DHT22;18310;55.586;12.286;2022-08-21T13:37:55;30.30;37.50
31731;DHT22;18310;55.586;12.286;2022-08-21T13:41:03;30.30;37.40
31731;DHT22;18310;55.586;12.286;2022-08-21T13:44:16;30.40;37.20
31731;DHT22;18310;55.586;12.286;2022-08-21T13:47:21;30.30;36.90
31731;DHT22;18310;55.586;12.286;2022-08-21T13:50:25;30.30;37.20
31731;DHT22;18310;55.586;12.286;2022-08-21T13:53:31;30.30;37.20
31731;DHT22;18310;55.586;12.286;2022-08-21T13:56:44;30.30;37.00
31731;DHT22;18310;55.586;12.286;2022-08-21T13:59:48;30.30;36.90
31731;DHT22;18310;55.586;12.286;2022-08-21T14:02:54;30.30;37.20
31731;DHT22;18310;55.586;12.286;2022-08-21T14:06:11;30.30;36.10
31731;DHT22;18310;55.586;12.286;2022-08-21T14:09:25;30.20;36.50
31731;DHT22;18310;55.586;12.286;2022-08-21T14:12:42;30.20;36.20
31731;DHT22;18310;55.586;12.286;2022-08-21T14:15:54;30.10;36.00
31731;DHT22;18310;55.586;12.286;2022-08-21T14:19:09;30.00;35.90
31731;DHT22;18310;55.586;12.286;2022-08-21T14:22:28;30.00;36.00
31731;DHT22;18310;55.586;12.286;2022-08-21T14:25:39;30.00;36.10
31731;DHT22;18310;55.586;12.286;2022-08-21T14:28:46;30.00;36.20
31731;DHT22;18310;55.586;12.286;2022-08-21T14:31:51;30.00;36.60
31731;DHT22;18310;55.586;12.286;2022-08-21T14:34:55;29.00;35.70
31731;DHT22;18310;55.586;12.286;2022-08-21T14:38:00;29.90;36.40
31731;DHT22;18310;55.586;12.286;2022-08-21T14:41:08;30.00;36.50
31731;DHT22;18310;55.586;12.286;2022-08-21T14:47:23;29.80;36.00
31731;DHT22;18310;55.586;12.286;2022-08-21T14:50:26;29.70;36.60
31731;DHT22;18310;55.586;12.286;2022-08-21T14:53:30;29.70;37.30
31731;DHT22;18310;55.586;12.286;2022-08-21T14:56:34;29.50;36.70
31731;DHT22;18310;55.586;12.286;2022-08-21T14:59:39;29.50;37.30
31731;DHT22;18310;55.586;12.286;2022-08-21T15:02:43;29.50;36.80
31731;DHT22;18310;55.586;12.286;2022-08-21T15:05:46;29.40;36.40
31731;DHT22;18310;55.586;12.286;2022-08-21T15:08:49;29.40;37.30
31731;DHT22;18310;55.586;12.286;2022-08-21T15:11:56;31.90;39.00
31731;DHT22;18310;55.586;12.286;2022-08-21T15:15:05;29.30;37.10
31731;DHT22;18310;55.586;12.286;2022-08-21T15:18:10;29.20;37.00
31731;DHT22;18310;55.586;12.286;2022-08-21T15:21:14;29.20;37.10
31731;DHT22;18310;55.586;12.286;2022-08-21T15:24:17;29.10;37.20
31731;DHT22;18310;55.586;12.286;2022-08-21T15:27:20;28.60;37.20
31731;DHT22;18310;55.586;12.286;2022-08-21T15:30:25;29.00;37.10
31731;DHT22;18310;55.586;12.286;2022-08-21T15:33:28;29.00;37.90
31731;DHT22;18310;55.586;12.286;2022-08-21T15:36:31;28.90;37.30
31731;DHT22;18310;55.586;12.286;2022-08-21T15:39:35;28.90;37.30
31731;DHT22;18310;55.586;12.286;2022-08-21T15:42:42;28.80;37.20
31731;DHT22;18310;55.586;12.286;2022-08-21T15:45:47;28.80;37.10
31731;DHT22;18310;55.586;12.286;2022-08-21T15:48:51;28.70;37.10
31731;DHT22;18310;55.586;12.286;2022-08-21T15:52:01;28.70;37.20
31731;DHT22;18310;55.586;12.286;2022-08-21T15:55:05;28.60;37.10
31731;DHT22;18310;55.586;12.286;2022-08-21T15:58:13;28.60;37.20
31731;DHT22;18310;55.586;12.286;2022-08-21T16:01:19;28.50;37.30
31731;DHT22;18310;55.586;12.286;2022-08-21T16:04:26;28.00;36.90
31731;DHT22;18310;55.586;12.286;2022-08-21T16:07:30;28.30;37.90
31731;DHT22;18310;55.586;12.286;2022-08-21T16:10:35;28.30;37.80
31731;DHT22;18310;55.586;12.286;2022-08-21T16:13:41;28.30;37.70
31731;DHT22;18310;55.586;12.286;2022-08-21T16:19:51;28.10;37.70
31731;DHT22;18310;55.586;12.286;2022-08-21T16:22:56;28.50;38.90
31731;DHT22;18310;55.586;12.286;2022-08-21T16:26:01;28.50;38.00
31731;DHT22;18310;55.586;12.286;2022-08-21T16:29:08;28.50;37.70
31731;DHT22;18310;55.586;12.286;2022-08-21T16:32:13;28.60;37.90
31731;DHT22;18310;55.586;12.286;2022-08-21T16:35:19;26.10;35.60
31731;DHT22;18310;55.586;12.286;2022-08-21T16:38:23;28.50;37.50
31731;DHT22;18310;55.586;12.286;2022-08-21T16:41:32;28.50;37.40
31731;DHT22;18310;55.586;12.286;2022-08-21T16:44:36;28.70;37.80
31731;DHT22;18310;55.586;12.286;2022-08-21T16:47:41;28.40;37.70
31731;DHT22;18310;55.586;12.286;2022-08-21T16:50:46;28.50;37.70
31731;DHT22;18310;55.586;12.286;2022-08-21T16:53:51;28.40;37.50
31731;DHT22;18310;55.586;12.286;2022-08-21T16:56:55;28.30;37.70
31731;DHT22;18310;55.586;12.286;2022-08-21T16:59:59;28.30;37.80
31731;DHT22;18310;55.586;12.286;2022-08-21T17:03:16;28.20;37.70
31731;DHT22;18310;55.586;12.286;2022-08-21T17:06:22;28.20;38.00
31731;DHT22;18310;55.586;12.286;2022-08-21T17:09:29;28.10;38.40
31731;DHT22;18310;55.586;12.286;2022-08-21T17:12:33;25.60;36.80
31731;DHT22;18310;55.586;12.286;2022-08-21T17:15:38;28.00;38.60
31731;DHT22;18310;55.586;12.286;2022-08-21T17:18:43;27.90;38.60
31731;DHT22;18310;55.586;12.286;2022-08-21T17:21:52;27.90;38.60
31731;DHT22;18310;55.586;12.286;2022-08-21T17:27:59;27.60;38.30
31731;DHT22;18310;55.586;12.286;2022-08-21T17:31:06;27.40;39.10
31731;DHT22;18310;55.586;12.286;2022-08-21T17:34:13;27.30;39.40
31731;DHT22;18310;55.586;12.286;2022-08-21T17:37:17;27.10;39.70
31731;DHT22;18310;55.586;12.286;2022-08-21T17:40:21;26.90;40.10
31731;DHT22;18310;55.586;12.286;2022-08-21T17:43:25;26.70;40.80
31731;DHT22;18310;55.586;12.286;2022-08-21T17:46:28;26.40;41.20
31731;DHT22;18310;55.586;12.286;2022-08-21T17:49:33;25.30;40.80
31731;DHT22;18310;55.586;12.286;2022-08-21T17:52:37;26.30;42.10
31731;DHT22;18310;55.586;12.286;2022-08-21T17:55:40;26.20;41.80
31731;DHT22;18310;55.586;12.286;2022-08-21T17:58:46;26.00;41.70
31731;DHT22;18310;55.586;12.286;2022-08-21T18:01:52;27.00;43.90
31731;DHT22;18310;55.586;12.286;2022-08-21T18:05:05;30.60;47.40
31731;DHT22;18310;55.586;12.286;2022-08-21T18:08:10;21.20;42.10
31731;DHT22;18310;55.586;12.286;2022-08-21T18:11:14;25.70;45.20
31731;DHT22;18310;55.586;12.286;2022-08-21T18:14:27;25.30;45.90
31731;DHT22;18310;55.586;12.286;2022-08-21T18:17:33;25.30;46.40
31731;DHT22;18310;55.586;12.286;2022-08-21T18:20:37;25.10;47.10
31731;DHT22;18310;55.586;12.286;2022-08-21T18:26:46;23.20;48.00
31731;DHT22;18310;55.586;12.286;2022-08-21T18:29:52;25.00;49.50
31731;DHT22;18310;55.586;12.286;2022-08-21T18:32:57;24.70;50.70
31731;DHT22;18310;55.586;12.286;2022-08-21T18:36:03;23.50;49.90
31731;DHT22;18310;55.586;12.286;2022-08-21T18:39:07;22.70;51.30
31731;DHT22;18310;55.586;12.286;2022-08-21T18:42:35;27.10;53.80
31731;DHT22;18310;55.586;12.286;2022-08-21T18:48:45;24.10;52.30
31731;DHT22;18310;55.586;12.286;2022-08-21T18:51:49;24.10;52.70
31731;DHT22;18310;55.586;12.286;2022-08-21T18:54:52;24.10;52.80
31731;DHT22;18310;55.586;12.286;2022-08-21T18:57:56;23.90;53.10
31731;DHT22;18310;55.586;12.286;2022-08-21T19:01:02;23.80;53.20
31731;DHT22;18310;55.586;12.286;2022-08-21T19:04:07;23.80;53.80
31731;DHT22;18310;55.586;12.286;2022-08-21T19:07:32;23.70;54.30
31731;DHT22;18310;55.586;12.286;2022-08-21T19:10:35;23.70;55.20
31731;DHT22;18310;55.586;12.286;2022-08-21T19:13:51;23.60;54.80
31731;DHT22;18310;55.586;12.286;2022-08-21T19:16:55;23.50;55.70
31731;DHT22;18310;55.586;12.286;2022-08-21T19:20:05;23.50;55.50
31731;DHT22;18310;55.586;12.286;2022-08-21T19:23:27;23.40;56.50
31731;DHT22;18310;55.586;12.286;2022-08-21T19:26:35;23.30;55.60
31731;DHT22;18310;55.586;12.286;2022-08-21T19:29:38;23.30;54.50
31731;DHT22;18310;55.586;12.286;2022-08-21T19:32:44;23.20;55.40
31731;DHT22;18310;55.586;12.286;2022-08-21T19:35:50;24.20;56.30
31731;DHT22;18310;55.586;12.286;2022-08-21T19:38:54;23.10;54.80
31731;DHT22;18310;55.586;12.286;2022-08-21T19:41:58;23.10;55.80
31731;DHT22;18310;55.586;12.286;2022-08-21T19:45:03;23.00;55.60
31731;DHT22;18310;55.586;12.286;2022-08-21T19:48:07;23.00;55.80
31731;DHT22;18310;55.586;12.286;2022-08-21T19:51:14;22.90;55.90
31731;DHT22;18310;55.586;12.286;2022-08-21T19:54:21;22.70;55.40
31731;DHT22;18310;55.586;12.286;2022-08-21T19:57:27;22.80;56.00
31731;DHT22;18310;55.586;12.286;2022-08-21T20:00:30;22.60;55.90
31731;DHT22;18310;55.586;12.286;2022-08-21T20:03:33;22.60;56.00
31731;DHT22;18310;55.586;12.286;2022-08-21T20:06:37;22.70;55.90
31731;DHT22;18310;55.586;12.286;2022-08-21T20:09:44;23.00;56.40
31731;DHT22;18310;55.586;12.286;2022-08-21T20:12:50;22.60;56.90
31731;DHT22;18310;55.586;12.286;2022-08-21T20:15:54;22.60;56.60
31731;DHT22;18310;55.586;12.286;2022-08-21T20:18:58;22.30;56.40
31731;DHT22;18310;55.586;12.286;2022-08-21T20:22:04;22.40;56.10
31731;DHT22;18310;55.586;12.286;2022-08-21T20:25:09;22.40;56.70
31731;DHT22;18310;55.586;12.286;2022-08-21T20:28:14;22.50;56.80
31731;DHT22;18310;55.586;12.286;2022-08-21T20:31:18;22.40;56.80
31731;DHT22;18310;55.586;12.286;2022-08-21T20:34:22;22.40;56.20
31731;DHT22;18310;55.586;12.286;2022-08-21T20:40:39;22.00;56.60
31731;DHT22;18310;55.586;12.286;2022-08-21T20:46:46;21.70;56.70
31731;DHT22;18310;55.586;12.286;2022-08-21T20:49:56;21.70;57.40
31731;DHT22;18310;55.586;12.286;2022-08-21T20:53:07;21.60;57.20
31731;DHT22;18310;55.586;12.286;2022-08-21T20:56:31;21.60;57.20
31731;DHT22;18310;55.586;12.286;2022-08-21T20:59:47;21.40;56.90
31731;DHT22;18310;55.586;12.286;2022-08-21T21:02:58;21.30;57.20
31731;DHT22;18310;55.586;12.286;2022-08-21T21:06:10;21.50;57.50
31731;DHT22;18310;55.586;12.286;2022-08-21T21:09:25;21.20;57.70
31731;DHT22;18310;55.586;12.286;2022-08-21T21:12:44;21.40;57.90
31731;DHT22;18310;55.586;12.286;2022-08-21T21:15:56;21.30;58.00
31731;DHT22;18310;55.586;12.286;2022-08-21T21:19:08;21.10;58.40
31731;DHT22;18310;55.586;12.286;2022-08-21T21:22:25;21.00;58.70
31731;DHT22;18310;55.586;12.286;2022-08-21T21:25:36;21.00;58.60
31731;DHT22;18310;55.586;12.286;2022-08-21T21:28:50;20.90;59.10
31731;DHT22;18310;55.586;12.286;2022-08-21T21:31:58;21.00;59.00